createdAt,value
2018-02-14T00:00:33.439Z,18.10
2018-02-14T00:03:01.754Z,17.30
2018-02-14T00:05:30.141Z,17.33
2018-02-14T00:07:58.477Z,19.23
2018-02-14T00:10:26.782Z,17.87
2018-02-14T00:12:55.135Z,19.23
2018-02-14T00:15:23.459Z,20.00
2018-02-14T00:17:51.807Z,18.40
2018-02-14T00:20:20.127Z,19.83
2018-02-14T00:22:48.479Z,19.40
2018-02-14T00:25:16.906Z,19.33
2018-02-14T00:27:45.350Z,21.33
2018-02-14T00:30:13.822Z,18.37
2018-02-14T00:32:42.148Z,19.07
2018-02-14T00:35:11.318Z,19.50
2018-02-14T00:37:39.641Z,18.73
2018-02-14T00:42:42.650Z,18.63
2018-02-14T00:45:11.010Z,19.83
2018-02-14T00:47:39.330Z,18.40
2018-02-14T00:50:07.670Z,18.57
2018-02-14T00:52:36.012Z,18.67
2018-02-14T00:55:04.338Z,20.53
2018-02-14T00:57:32.753Z,17.67
2018-02-14T01:00:01.166Z,19.00
2018-02-14T01:02:29.503Z,19.17
2018-02-14T01:04:57.839Z,19.10
2018-02-14T01:07:26.214Z,18.10
2018-02-14T01:09:54.538Z,19.60
2018-02-14T01:12:22.875Z,18.83
2018-02-14T01:14:51.225Z,18.00
2018-02-14T01:17:19.550Z,18.40
2018-02-14T01:19:48.206Z,19.30
2018-02-14T01:22:16.532Z,18.93
2018-02-14T01:24:44.898Z,19.60
2018-02-14T01:27:13.216Z,18.50
2018-02-14T01:29:41.538Z,19.83
2018-02-14T01:32:09.894Z,18.97
2018-02-14T01:34:38.257Z,16.73
2018-02-14T01:37:06.585Z,18.90
2018-02-14T01:39:34.921Z,19.87
2018-02-14T01:42:03.391Z,19.50
2018-02-14T01:44:31.711Z,18.90
2018-02-14T01:47:00.040Z,19.20
2018-02-14T01:49:28.422Z,20.37
2018-02-14T01:51:56.738Z,20.40
2018-02-14T01:54:25.192Z,19.00
2018-02-14T01:56:53.492Z,17.90
2018-02-14T01:59:21.910Z,20.60
2018-02-14T02:01:50.258Z,19.70
2018-02-14T02:04:18.598Z,20.33
2018-02-14T02:06:46.925Z,20.57
2018-02-14T02:09:15.294Z,20.30
2018-02-14T02:11:43.648Z,21.50
2018-02-14T02:14:12.066Z,18.83
2018-02-14T02:16:40.420Z,19.60
2018-02-14T02:19:08.739Z,19.20
2018-02-14T02:21:37.087Z,20.57
2018-02-14T02:24:05.515Z,19.17
2018-02-14T02:26:33.893Z,19.80
2018-02-14T02:29:02.199Z,20.73
2018-02-14T02:31:30.551Z,19.67
2018-02-14T02:33:58.930Z,18.93
2018-02-14T02:36:27.375Z,18.70
2018-02-14T02:38:55.698Z,19.30
2018-02-14T02:41:24.007Z,19.00
2018-02-14T02:43:52.398Z,19.60
2018-02-14T02:46:20.806Z,19.60
2018-02-14T02:48:49.151Z,21.20
2018-02-14T02:51:17.534Z,19.93
2018-02-14T02:53:45.893Z,20.57
2018-02-14T02:56:14.218Z,20.23
2018-02-14T02:58:42.553Z,20.10
2018-02-14T03:01:10.896Z,19.70
2018-02-14T03:03:39.245Z,19.70
2018-02-14T03:06:07.598Z,19.77
2018-02-14T03:08:36.106Z,20.80
2018-02-14T03:11:04.439Z,19.37
2018-02-14T03:13:32.768Z,19.77
2018-02-14T03:16:01.108Z,21.20
2018-02-14T03:18:29.432Z,19.60
2018-02-14T03:20:57.866Z,19.63
2018-02-14T03:23:26.243Z,21.17
2018-02-14T03:25:54.604Z,20.70
2018-02-14T03:28:22.942Z,19.10
2018-02-14T03:30:51.270Z,19.77
2018-02-14T03:33:19.595Z,20.87
2018-02-14T03:35:47.950Z,20.47
2018-02-14T03:38:16.283Z,21.77
2018-02-14T03:40:44.599Z,20.60
2018-02-14T03:43:12.967Z,20.07
2018-02-14T03:45:41.295Z,19.43
2018-02-14T03:48:09.642Z,20.97
2018-02-14T03:50:37.970Z,20.40
2018-02-14T03:53:06.326Z,19.73
2018-02-14T03:55:34.692Z,20.80
2018-02-14T03:58:03.253Z,21.40
2018-02-14T04:00:31.570Z,19.93
2018-02-14T04:02:59.886Z,21.00
2018-02-14T04:05:28.242Z,21.33
2018-02-14T04:07:56.581Z,20.87
2018-02-14T04:10:24.937Z,20.17
2018-02-14T04:12:53.307Z,20.10
2018-02-14T04:15:21.649Z,20.67
2018-02-14T04:17:50.063Z,20.73
2018-02-14T04:20:18.441Z,20.30
2018-02-14T04:22:46.785Z,21.20
2018-02-14T04:25:15.158Z,20.57
2018-02-14T04:27:43.478Z,20.57
2018-02-14T04:30:11.806Z,21.23
2018-02-14T04:32:40.218Z,20.23
2018-02-14T04:35:08.658Z,21.23
2018-02-14T04:37:37.157Z,20.10
2018-02-14T04:40:05.810Z,21.97
2018-02-14T04:42:34.166Z,20.87
2018-02-14T04:45:02.502Z,20.30
2018-02-14T04:47:30.857Z,21.37
2018-02-14T04:49:59.221Z,21.57
2018-02-14T04:52:27.540Z,24.13
2018-02-14T04:54:55.883Z,21.43
2018-02-14T04:57:24.211Z,20.87
2018-02-14T04:59:52.568Z,20.20
2018-02-14T05:02:20.887Z,20.00
2018-02-14T05:04:49.239Z,22.20
2018-02-14T05:07:17.558Z,21.53
2018-02-14T05:09:46.148Z,19.83
2018-02-14T05:12:14.524Z,22.03
2018-02-14T05:14:42.902Z,21.87
2018-02-14T05:17:11.258Z,22.93
2018-02-14T05:19:39.592Z,22.20
2018-02-14T05:22:08.039Z,20.87
2018-02-14T05:24:36.355Z,20.93
2018-02-14T05:27:04.720Z,21.23
2018-02-14T05:29:33.680Z,22.53
2018-02-14T05:32:02.019Z,23.27
2018-02-14T05:34:30.362Z,23.77
2018-02-14T05:36:59.091Z,23.27
2018-02-14T05:39:27.431Z,22.80
2018-02-14T05:41:55.815Z,21.73
2018-02-14T05:44:24.227Z,23.40
2018-02-14T05:46:52.556Z,21.37
2018-02-14T05:49:20.907Z,21.83
2018-02-14T05:51:49.243Z,22.00
2018-02-14T05:54:17.702Z,23.43
2018-02-14T05:56:46.027Z,22.20
2018-02-14T05:59:14.391Z,22.60
2018-02-14T06:01:42.718Z,22.50
2018-02-14T06:04:11.066Z,24.50
2018-02-14T06:06:39.398Z,22.57
2018-02-14T06:09:07.770Z,21.07
2018-02-14T06:11:36.148Z,22.80
2018-02-14T06:14:04.481Z,23.80
2018-02-14T06:16:32.831Z,21.50
2018-02-14T06:19:01.159Z,22.53
2018-02-14T06:21:29.529Z,21.77
2018-02-14T06:23:58.019Z,23.63
2018-02-14T06:26:27.615Z,24.30
2018-02-14T06:28:55.935Z,24.77
2018-02-14T06:31:24.306Z,24.50
2018-02-14T06:33:52.635Z,23.83
2018-02-14T06:36:20.986Z,24.93
2018-02-14T06:38:49.405Z,22.10
2018-02-14T06:41:17.722Z,24.97
2018-02-14T06:43:46.066Z,23.30
2018-02-14T06:46:14.398Z,24.67
2018-02-14T06:48:42.759Z,26.13
2018-02-14T06:51:11.086Z,23.83
2018-02-14T06:53:39.549Z,23.50
2018-02-14T06:56:07.868Z,25.10
2018-02-14T06:58:36.235Z,22.17
2018-02-14T07:01:04.561Z,23.77
2018-02-14T07:03:32.911Z,25.77
2018-02-14T07:06:01.239Z,26.17
2018-02-14T07:08:29.604Z,24.40
2018-02-14T07:10:57.982Z,24.47
2018-02-14T07:13:26.308Z,23.33
2018-02-14T07:15:54.734Z,23.20
2018-02-14T07:18:23.067Z,23.90
2018-02-14T07:20:51.398Z,23.27
2018-02-14T07:23:25.404Z,25.33
2018-02-14T07:25:53.781Z,23.07
2018-02-14T07:28:22.255Z,25.67
2018-02-14T07:30:50.590Z,25.07
2018-02-14T07:33:18.942Z,25.10
2018-02-14T07:35:47.266Z,22.90
2018-02-14T07:38:15.628Z,22.23
2018-02-14T07:40:43.997Z,22.77
2018-02-14T07:43:12.328Z,21.07
2018-02-14T07:45:40.651Z,22.00
2018-02-14T07:48:09.338Z,21.57
2018-02-14T07:50:37.646Z,20.13
2018-02-14T07:53:06.049Z,20.10
2018-02-14T07:55:34.394Z,18.67
2018-02-14T07:58:02.722Z,18.40
2018-02-14T08:00:31.075Z,17.13
2018-02-14T08:02:59.409Z,18.33
2018-02-14T08:05:27.754Z,17.17
2018-02-14T08:07:56.089Z,17.40
2018-02-14T08:10:24.441Z,17.77
2018-02-14T08:12:52.762Z,17.70
2018-02-14T08:15:21.139Z,17.30
2018-02-14T08:17:49.470Z,17.47
2018-02-14T08:20:17.784Z,18.73
2018-02-14T08:22:46.126Z,18.77
2018-02-14T08:25:14.590Z,17.80
2018-02-14T08:27:42.921Z,17.57
2018-02-14T08:30:11.276Z,18.83
2018-02-14T08:32:39.657Z,17.50
2018-02-14T08:35:07.981Z,17.00
2018-02-14T08:37:36.373Z,17.90
2018-02-14T08:40:04.687Z,16.57
2018-02-14T08:42:33.065Z,18.53
2018-02-14T08:45:01.537Z,18.03
2018-02-14T08:47:29.854Z,17.03
2018-02-14T08:49:58.208Z,14.73
2018-02-14T08:52:26.614Z,15.50
2018-02-14T08:54:54.950Z,14.33
2018-02-14T08:57:23.302Z,13.83
2018-02-14T08:59:51.646Z,13.87
2018-02-14T09:02:19.974Z,13.67
2018-02-14T09:04:48.394Z,13.60
2018-02-14T09:07:16.732Z,13.63
2018-02-14T09:09:45.133Z,12.00
2018-02-14T09:12:13.467Z,15.30
2018-02-14T09:14:41.797Z,15.80
2018-02-14T09:17:10.157Z,13.50
2018-02-14T09:19:38.503Z,15.70
2018-02-14T09:22:06.983Z,16.10
2018-02-14T09:24:35.305Z,12.77
2018-02-14T09:27:03.667Z,13.27
2018-02-14T09:29:32.078Z,13.40
2018-02-14T09:32:00.453Z,12.80
2018-02-14T09:34:28.784Z,13.97
2018-02-14T09:36:57.153Z,14.13
2018-02-14T09:39:25.528Z,13.80
2018-02-14T09:41:53.991Z,13.17
2018-02-14T09:44:22.322Z,13.23
2018-02-14T09:46:50.645Z,13.60
2018-02-14T09:49:19.013Z,13.30
2018-02-14T09:51:47.421Z,12.67
2018-02-14T09:54:15.751Z,13.70
2018-02-14T09:56:44.131Z,11.30
2018-02-14T09:59:12.503Z,13.43
2018-02-14T10:01:40.849Z,14.17
2018-02-14T10:04:09.245Z,11.63
2018-02-14T10:06:37.593Z,10.30
2018-02-14T10:09:05.895Z,10.40
2018-02-14T10:11:34.242Z,12.60
2018-02-14T10:14:02.564Z,12.80
2018-02-14T10:16:30.906Z,11.57
2018-02-14T10:18:59.234Z,9.40
2018-02-14T10:21:27.566Z,7.00
2018-02-14T10:23:55.957Z,6.57
2018-02-14T10:26:24.293Z,7.07
2018-02-14T10:28:52.610Z,8.17
2018-02-14T10:31:20.957Z,6.53
2018-02-14T10:33:49.265Z,6.90
2018-02-14T10:36:17.583Z,9.07
2018-02-14T10:38:45.931Z,7.13
2018-02-14T10:41:14.243Z,6.20
2018-02-14T10:43:42.610Z,6.60
2018-02-14T10:46:10.928Z,6.13
2018-02-14T10:48:39.302Z,7.37
2018-02-14T10:51:07.607Z,5.93
2018-02-14T10:53:35.950Z,6.73
2018-02-14T10:56:04.258Z,6.60
2018-02-14T10:58:32.820Z,7.23
2018-02-14T11:01:02.026Z,5.50
2018-02-14T11:03:36.129Z,5.30
2018-02-14T11:06:10.021Z,5.50
2018-02-14T11:08:38.393Z,7.80
2018-02-14T11:11:06.700Z,6.13
2018-02-14T11:13:35.011Z,7.13
2018-02-14T11:16:03.345Z,7.67
2018-02-14T11:18:31.650Z,8.80
2018-02-14T11:21:00.030Z,7.63
2018-02-14T11:23:28.434Z,7.00
2018-02-14T11:25:56.824Z,8.10
2018-02-14T11:28:25.194Z,8.27
2018-02-14T11:30:53.522Z,7.20
2018-02-14T11:33:21.837Z,7.87
2018-02-14T11:35:50.185Z,7.20
2018-02-14T11:38:18.628Z,10.97
2018-02-14T11:40:47.011Z,9.50
2018-02-14T11:43:15.337Z,8.20
2018-02-14T11:45:44.634Z,8.67
2018-02-14T11:48:13.081Z,8.47
2018-02-14T11:50:41.381Z,8.30
2018-02-14T11:53:09.735Z,10.03
2018-02-14T11:55:38.055Z,8.90
2018-02-14T11:58:06.407Z,10.17
2018-02-14T12:00:34.730Z,9.20
2018-02-14T12:03:03.116Z,9.87
2018-02-14T12:05:31.426Z,8.10
2018-02-14T12:07:59.746Z,9.17
2018-02-14T12:10:28.131Z,10.40
2018-02-14T12:12:56.538Z,11.23
2018-02-14T12:15:24.874Z,10.30
2018-02-14T12:17:53.213Z,10.90
2018-02-14T12:20:21.568Z,11.30
2018-02-14T12:22:49.909Z,10.27
2018-02-14T12:25:18.248Z,9.30
2018-02-14T12:27:46.575Z,9.33
2018-02-14T12:30:14.973Z,9.50
2018-02-14T12:32:43.308Z,12.87
2018-02-14T12:35:11.620Z,9.47
2018-02-14T12:37:39.983Z,9.03
2018-02-14T12:40:08.323Z,8.27
2018-02-14T12:42:36.666Z,9.80
2018-02-14T12:45:04.994Z,9.13
2018-02-14T12:47:33.354Z,11.87
2018-02-14T12:50:01.706Z,9.40
2018-02-14T12:52:30.040Z,9.60
2018-02-14T12:54:58.385Z,9.70
2018-02-14T12:57:26.705Z,10.53
2018-02-14T12:59:55.036Z,11.50
2018-02-14T13:02:23.373Z,11.00
2018-02-14T13:04:51.713Z,11.00
2018-02-14T13:07:20.035Z,12.50
2018-02-14T13:09:48.385Z,12.97
2018-02-14T13:12:16.705Z,12.63
2018-02-14T13:14:45.068Z,11.40
2018-02-14T13:17:13.435Z,12.57
2018-02-14T13:19:41.763Z,11.93
2018-02-14T13:22:10.166Z,12.77
2018-02-14T13:24:38.529Z,15.82
2018-02-14T13:27:06.885Z,14.75
2018-02-14T13:29:35.265Z,13.68
2018-02-14T13:32:03.614Z,13.48
2018-02-14T13:34:31.962Z,16.23
2018-02-14T13:37:00.298Z,14.27
2018-02-14T13:39:28.650Z,14.97
2018-02-14T13:41:56.982Z,16.93
2018-02-14T13:44:25.604Z,18.20
2018-02-14T13:46:53.929Z,14.50
2018-02-14T13:49:22.255Z,15.23
2018-02-14T13:51:50.669Z,15.80
2018-02-14T13:54:19.001Z,14.43
2018-02-14T13:56:47.403Z,14.20
2018-02-14T13:59:15.770Z,15.07
2018-02-14T14:01:44.167Z,17.10
2018-02-14T14:04:12.496Z,15.90
2018-02-14T14:06:40.819Z,16.50
2018-02-14T14:09:09.162Z,16.33
2018-02-14T14:11:37.498Z,17.73
2018-02-14T14:14:05.854Z,17.43
2018-02-14T14:16:34.186Z,17.17
2018-02-14T14:19:02.572Z,17.17
2018-02-14T14:21:30.873Z,19.40
2018-02-14T14:23:59.215Z,17.83
2018-02-14T14:26:27.565Z,18.53
2018-02-14T14:28:55.905Z,16.20
2018-02-14T14:31:24.275Z,18.80
2018-02-14T14:33:52.595Z,18.83
2018-02-14T14:36:20.943Z,18.67
2018-02-14T14:38:49.343Z,19.10
2018-02-14T14:41:17.672Z,21.20
2018-02-14T14:43:45.999Z,19.90
2018-02-14T14:46:14.435Z,19.93
2018-02-14T14:48:42.779Z,18.93
2018-02-14T14:51:11.116Z,21.90
2018-02-14T14:53:39.460Z,20.80
2018-02-14T14:56:07.774Z,20.53
2018-02-14T14:58:36.110Z,21.50
2018-02-14T15:01:04.429Z,21.00
2018-02-14T15:03:32.786Z,22.67
2018-02-14T15:06:01.126Z,21.83
2018-02-14T15:08:29.433Z,24.80
2018-02-14T15:10:57.796Z,25.67
2018-02-14T15:13:26.157Z,24.77
2018-02-14T15:15:54.507Z,24.43
2018-02-14T15:18:22.827Z,23.93
2018-02-14T15:20:51.179Z,26.40
2018-02-14T15:23:19.483Z,24.20
2018-02-14T15:25:47.862Z,24.47
2018-02-14T15:28:16.194Z,25.40
2018-02-14T15:30:44.514Z,25.80
2018-02-14T15:33:13.014Z,25.63
2018-02-14T15:35:41.339Z,24.53
2018-02-14T15:38:09.681Z,26.53
2018-02-14T15:40:38.012Z,32.23
2018-02-14T15:43:06.530Z,28.47
2018-02-14T15:45:35.194Z,29.23
2018-02-14T15:48:03.540Z,27.47
2018-02-14T15:50:31.860Z,27.90
2018-02-14T15:53:00.184Z,28.27
2018-02-14T15:55:28.535Z,27.20
2018-02-14T15:57:56.877Z,28.13
2018-02-14T16:00:25.222Z,27.77
2018-02-14T16:02:53.544Z,28.57
2018-02-14T16:05:21.958Z,26.80
2018-02-14T16:07:50.275Z,28.63
2018-02-14T16:10:18.640Z,27.37
2018-02-14T16:12:46.966Z,28.23
2018-02-14T16:15:15.360Z,28.37
2018-02-14T16:17:43.679Z,27.33
2018-02-14T16:20:12.038Z,25.80
2018-02-14T16:22:40.370Z,25.50
2018-02-14T16:25:08.720Z,28.47
2018-02-14T16:27:37.064Z,26.30
2018-02-14T16:30:05.405Z,26.87
2018-02-14T16:32:33.828Z,27.20
2018-02-14T16:35:02.131Z,24.93
2018-02-14T16:37:30.513Z,26.60
2018-02-14T16:39:58.826Z,26.73
2018-02-14T16:42:27.295Z,25.20
2018-02-14T16:44:56.609Z,28.27
2018-02-14T16:47:24.923Z,25.80
2018-02-14T16:49:53.272Z,27.27
2018-02-14T16:52:21.631Z,27.60
2018-02-14T16:54:49.975Z,27.80
2018-02-14T16:57:18.429Z,26.73
2018-02-14T16:59:46.878Z,27.50
2018-02-14T17:02:15.288Z,28.20
2018-02-14T17:04:43.744Z,29.40
2018-02-14T17:07:13.002Z,28.70
2018-02-14T17:09:41.417Z,28.27
2018-02-14T17:12:09.813Z,29.77
2018-02-14T17:14:38.397Z,28.93
2018-02-14T17:17:06.746Z,28.50
2018-02-14T17:19:35.061Z,29.90
2018-02-14T17:22:03.397Z,29.13
2018-02-14T17:24:31.749Z,30.70
2018-02-14T17:27:00.084Z,28.27
2018-02-14T17:29:28.470Z,30.50
2018-02-14T17:31:56.812Z,28.03
2018-02-14T17:34:25.148Z,31.37
2018-02-14T17:36:53.505Z,30.03
2018-02-14T17:39:21.946Z,30.30
2018-02-14T17:41:50.276Z,27.87
2018-02-14T17:44:18.598Z,32.43
2018-02-14T17:46:46.949Z,30.00
2018-02-14T17:49:15.294Z,29.83
2018-02-14T17:51:43.645Z,29.57
2018-02-14T17:54:11.978Z,31.60
2018-02-14T17:56:40.315Z,32.27
2018-02-14T17:59:08.710Z,30.87
2018-02-14T18:01:37.145Z,31.37
2018-02-14T18:04:05.563Z,29.90
2018-02-14T18:06:33.875Z,40.23
2018-02-14T18:09:02.247Z,34.67
2018-02-14T18:11:30.576Z,32.17
2018-02-14T18:13:58.934Z,34.77
2018-02-14T18:16:27.274Z,32.10
2018-02-14T18:18:55.620Z,32.83
2018-02-14T18:21:23.998Z,33.97
2018-02-14T18:23:52.349Z,34.30
2018-02-14T18:26:20.742Z,32.87
2018-02-14T18:28:49.070Z,34.00
2018-02-14T18:31:17.442Z,31.70
2018-02-14T18:33:45.771Z,32.17
2018-02-14T18:36:14.176Z,32.00
2018-02-14T18:38:42.493Z,33.57
2018-02-14T18:41:10.840Z,31.07
2018-02-14T18:43:39.167Z,33.60
2018-02-14T18:46:07.663Z,34.40
2018-02-14T18:48:35.992Z,34.40
2018-02-14T18:51:04.351Z,35.57
2018-02-14T18:53:32.721Z,31.30
2018-02-14T18:56:01.051Z,33.83
2018-02-14T18:58:29.390Z,33.57
2018-02-14T19:00:58.711Z,32.60
2018-02-14T19:03:27.066Z,162.67
2018-02-14T19:05:55.444Z,47.20
2018-02-14T19:08:23.858Z,69.13
2018-02-14T19:10:52.189Z,36.40
2018-02-14T19:13:20.550Z,34.90
2018-02-14T19:15:48.902Z,37.43
2018-02-14T19:18:17.235Z,33.10
2018-02-14T19:20:45.614Z,34.50
2018-02-14T19:23:13.927Z,34.37
2018-02-14T19:25:42.273Z,34.30
2018-02-14T19:28:10.613Z,33.67
2018-02-14T19:30:38.953Z,33.93
2018-02-14T19:33:07.291Z,35.67
2018-02-14T19:35:35.643Z,36.30
2018-02-14T19:38:03.979Z,39.00
2018-02-14T19:40:32.349Z,34.80
2018-02-14T19:43:00.797Z,34.87
2018-02-14T19:45:29.154Z,35.80
2018-02-14T19:47:57.490Z,35.57
2018-02-14T19:50:25.810Z,34.27
2018-02-14T19:52:54.165Z,34.87
2018-02-14T19:55:22.496Z,35.40
2018-02-14T19:57:50.846Z,35.73
2018-02-14T20:00:19.175Z,34.67
2018-02-14T20:02:47.545Z,33.80
2018-02-14T20:05:15.877Z,35.03
2018-02-14T20:07:44.268Z,33.30
2018-02-14T20:10:12.611Z,57.30
2018-02-14T20:12:41.449Z,47.17
2018-02-14T20:15:09.804Z,32.63
2018-02-14T20:17:38.202Z,31.77
2018-02-14T20:20:06.552Z,32.83
2018-02-14T20:22:34.894Z,33.73
2018-02-14T20:25:03.250Z,32.30
2018-02-14T20:27:31.578Z,33.70
2018-02-14T20:29:59.926Z,32.33
2018-02-14T20:32:28.251Z,33.70
2018-02-14T20:34:56.610Z,32.87
2018-02-14T20:37:25.020Z,34.13
2018-02-14T20:39:53.329Z,39.42
2018-02-14T20:42:21.692Z,38.17
2018-02-14T20:44:50.023Z,38.08
2018-02-14T20:47:18.388Z,38.17
2018-02-14T20:49:46.727Z,38.33
2018-02-14T20:52:15.492Z,38.15
2018-02-14T20:54:43.787Z,39.17
2018-02-14T20:57:12.117Z,37.30
2018-02-14T20:59:40.520Z,52.33
2018-02-14T21:02:08.865Z,43.87
2018-02-14T21:04:37.242Z,33.63
2018-02-14T21:07:06.280Z,30.80
2018-02-14T21:09:34.746Z,31.67
2018-02-14T21:12:03.098Z,28.83
2018-02-14T21:14:31.474Z,28.13
2018-02-14T21:16:59.810Z,27.50
2018-02-14T21:19:28.245Z,30.47
2018-02-14T21:21:56.591Z,27.57
2018-02-14T21:24:25.818Z,27.17
2018-02-14T21:26:54.175Z,28.50
2018-02-14T21:29:22.517Z,29.03
2018-02-14T21:31:50.899Z,29.50
2018-02-14T21:34:19.367Z,29.83
2018-02-14T21:36:48.033Z,31.90
2018-02-14T21:39:16.381Z,29.50
2018-02-14T21:41:44.714Z,28.73
2018-02-14T21:44:13.082Z,30.43
2018-02-14T21:46:41.436Z,30.17
2018-02-14T21:49:09.812Z,29.60
2018-02-14T21:51:38.173Z,28.63
2018-02-14T21:54:06.533Z,29.30
2018-02-14T21:56:34.930Z,29.23
2018-02-14T21:59:03.338Z,30.10
2018-02-14T22:01:31.704Z,28.13
2018-02-14T22:04:00.048Z,28.03
2018-02-14T22:06:28.416Z,29.43
2018-02-14T22:08:56.849Z,30.20
2018-02-14T22:11:25.231Z,28.50
2018-02-14T22:13:53.582Z,28.17
2018-02-14T22:16:22.009Z,29.90
2018-02-14T22:18:50.492Z,29.97
2018-02-14T22:21:18.835Z,28.83
2018-02-14T22:23:47.206Z,28.60
2018-02-14T22:26:15.550Z,28.63
2018-02-14T22:28:43.922Z,28.90
2018-02-14T22:31:12.275Z,31.77
2018-02-14T22:33:40.645Z,28.77
2018-02-14T22:36:08.998Z,27.67
2018-02-14T22:38:37.416Z,28.40
2018-02-14T22:41:05.816Z,41.23
2018-02-14T22:43:34.159Z,31.33
2018-02-14T22:46:02.526Z,27.97
2018-02-14T22:48:30.889Z,28.30
2018-02-14T22:50:59.247Z,28.03
2018-02-14T22:53:27.588Z,31.13
2018-02-14T22:55:56.039Z,28.43
2018-02-14T22:58:24.390Z,29.77
2018-02-14T23:00:52.803Z,26.63
2018-02-14T23:03:21.168Z,26.63
2018-02-14T23:05:49.523Z,26.77
2018-02-14T23:08:17.878Z,28.40
2018-02-14T23:10:46.323Z,28.47
2018-02-14T23:13:14.683Z,27.27
2018-02-14T23:15:43.024Z,28.47
2018-02-14T23:18:11.449Z,29.27
2018-02-14T23:20:39.811Z,27.73
2018-02-14T23:23:08.194Z,26.60
2018-02-14T23:30:13.302Z,25.93
2018-02-14T23:32:41.650Z,26.57
2018-02-14T23:35:10.014Z,26.67
2018-02-14T23:37:38.368Z,28.40
2018-02-14T23:40:06.779Z,25.13
2018-02-14T23:42:35.170Z,25.50
2018-02-14T23:45:03.532Z,27.33
2018-02-14T23:47:31.883Z,24.13
2018-02-14T23:50:00.352Z,25.20
2018-02-14T23:52:28.695Z,24.30
2018-02-14T23:54:57.075Z,21.97
2018-02-14T23:57:25.422Z,21.73
2018-02-14T23:59:53.771Z,21.40
